createdAt,value
2023-04-15T00:00:05.999Z,72.3407
2023-04-15T00:01:06.334Z,72.0056
2023-04-15T00:02:06.645Z,72.0741
2023-04-15T00:03:07.037Z,72.1048
2023-04-15T00:04:07.782Z,72.2350
2023-04-15T00:05:08.187Z,72.1856
2023-04-15T00:06:08.550Z,72.1529
2023-04-15T00:07:08.877Z,72.4315
2023-04-15T00:08:09.156Z,72.1439
2023-04-15T00:09:09.528Z,72.0271
2023-04-15T00:10:09.823Z,71.8967
2023-04-15T00:11:10.075Z,71.7120
2023-04-15T00:12:10.389Z,71.7332
2023-04-15T00:13:10.676Z,71.5683
2023-04-15T00:14:10.969Z,71.4622
2023-04-15T00:15:11.229Z,71.2196
2023-04-15T00:16:11.507Z,71.3764
2023-04-15T00:17:11.741Z,71.0568
2023-04-15T00:18:12.038Z,70.7874
2023-04-15T00:19:12.337Z,70.5080
2023-04-15T00:20:12.637Z,70.2825
2023-04-15T00:21:12.928Z,70.3845
2023-04-15T00:22:13.231Z,70.5671
2023-04-15T00:23:13.470Z,70.6986
2023-04-15T00:24:13.767Z,70.4573
2023-04-15T00:25:14.080Z,70.0688
2023-04-15T00:26:14.344Z,69.8598
2023-04-15T00:27:14.669Z,69.6929
2023-04-15T00:28:14.964Z,69.7426
2023-04-15T00:29:15.244Z,69.8198
2023-04-15T00:30:15.559Z,69.9503
2023-04-15T00:31:15.947Z,70.4985
2023-04-15T00:32:16.258Z,70.3979
2023-04-15T00:33:16.508Z,70.3294
2023-04-15T00:34:16.791Z,69.8532
2023-04-15T00:35:17.129Z,69.6781
2023-04-15T00:36:17.416Z,69.8113
2023-04-15T00:37:17.755Z,70.2548
2023-04-15T00:38:18.026Z,71.0712
2023-04-15T00:39:18.296Z,71.3179
2023-04-15T00:40:18.576Z,71.3064
2023-04-15T00:41:18.860Z,71.7973
2023-04-15T00:42:19.101Z,72.1198
2023-04-15T00:43:19.381Z,72.2029
2023-04-15T00:44:19.920Z,72.1185
2023-04-15T00:45:20.252Z,72.1559
2023-04-15T00:46:20.675Z,72.3926
2023-04-15T00:47:21.036Z,72.9547
2023-04-15T00:48:21.360Z,73.1581
2023-04-15T00:49:21.579Z,73.1015
2023-04-15T00:50:21.860Z,73.2026
2023-04-15T00:51:22.114Z,73.2854
2023-04-15T00:52:22.437Z,73.0814
2023-04-15T00:53:22.816Z,73.0337
2023-04-15T00:54:23.140Z,72.9184
2023-04-15T00:55:23.421Z,73.1284
2023-04-15T00:56:23.689Z,73.1818
2023-04-15T00:57:23.999Z,72.7624
2023-04-15T00:58:24.340Z,72.4455
2023-04-15T00:59:24.623Z,72.1910
2023-04-15T01:00:24.963Z,72.1618
2023-04-15T01:01:25.164Z,72.1730
2023-04-15T01:02:25.483Z,72.3406
2023-04-15T01:03:25.947Z,72.1995
2023-04-15T01:04:26.564Z,72.2003
2023-04-15T01:05:26.894Z,71.8636
2023-04-15T01:06:27.173Z,71.8458
2023-04-15T01:07:27.400Z,72.1945
2023-04-15T01:08:27.697Z,72.4135
2023-04-15T01:09:27.979Z,72.5866
2023-04-15T01:10:28.244Z,72.9870
2023-04-15T01:11:28.528Z,73.1456
2023-04-15T01:12:28.736Z,72.9041
2023-04-15T01:13:29.023Z,72.9210
2023-04-15T01:14:29.316Z,72.9043
2023-04-15T01:15:29.629Z,72.7490
2023-04-15T01:16:29.983Z,72.5173
2023-04-15T01:17:30.235Z,72.0804
2023-04-15T01:18:30.484Z,71.8033
2023-04-15T01:19:30.753Z,71.3639
2023-04-15T01:20:31.071Z,71.1289
2023-04-15T01:21:31.361Z,70.9613
2023-04-15T01:22:31.665Z,70.4125
2023-04-15T01:23:31.916Z,70.3042
2023-04-15T01:24:34.326Z,69.8482
2023-04-15T01:25:36.131Z,69.5962
2023-04-15T01:26:36.445Z,69.6904
2023-04-15T01:27:36.719Z,69.7178
2023-04-15T01:28:37.050Z,69.6988
2023-04-15T01:29:37.316Z,69.6715
2023-04-15T01:30:37.588Z,69.6670
2023-04-15T01:31:37.936Z,69.6215
2023-04-15T01:32:38.322Z,69.6185
2023-04-15T01:33:38.629Z,69.6020
2023-04-15T01:34:38.924Z,69.5759
2023-04-15T01:35:39.199Z,69.9272
2023-04-15T01:36:39.478Z,70.3818
2023-04-15T01:37:39.762Z,71.0337
2023-04-15T01:38:40.042Z,71.4443
2023-04-15T01:39:40.328Z,71.1837
2023-04-15T01:40:40.556Z,71.0405
2023-04-15T01:41:40.835Z,71.0428
2023-04-15T01:42:41.147Z,70.7960
2023-04-15T01:43:41.391Z,70.5434
2023-04-15T01:44:41.672Z,70.4682
2023-04-15T01:45:41.900Z,70.6968
2023-04-15T01:46:42.155Z,70.7948
2023-04-15T01:47:42.481Z,70.6810
2023-04-15T01:48:42.730Z,70.5709
2023-04-15T01:49:42.959Z,70.3978
2023-04-15T01:50:43.237Z,70.1845
2023-04-15T01:51:43.542Z,70.4160
2023-04-15T01:52:43.918Z,70.1534
2023-04-15T01:53:44.265Z,70.3010
2023-04-15T01:54:44.629Z,70.5555
2023-04-15T01:55:44.939Z,70.4414
2023-04-15T01:56:45.271Z,69.8868
2023-04-15T01:57:45.610Z,69.2186
2023-04-15T01:58:46.040Z,69.1918
2023-04-15T01:59:46.353Z,69.6032
2023-04-15T02:00:46.702Z,70.3914
2023-04-15T02:01:47.018Z,71.3503
2023-04-15T02:02:47.339Z,72.8695
2023-04-15T02:03:47.891Z,73.5695
2023-04-15T02:04:48.524Z,74.1837
2023-04-15T02:05:48.816Z,74.2797
2023-04-15T02:06:49.170Z,74.1301
2023-04-15T02:07:49.471Z,73.9983
2023-04-15T02:08:49.739Z,73.8961
2023-04-15T02:09:50.106Z,73.9645
2023-04-15T02:10:50.456Z,74.0110
2023-04-15T02:11:50.779Z,73.8820
2023-04-15T02:12:51.075Z,73.6098
2023-04-15T02:13:51.410Z,73.6046
2023-04-15T02:14:51.753Z,73.6062
2023-04-15T02:15:52.237Z,73.5800
2023-04-15T02:16:52.623Z,73.5728
2023-04-15T02:17:52.984Z,73.1669
2023-04-15T02:18:53.329Z,73.1033
2023-04-15T02:19:53.657Z,72.9860
2023-04-15T02:20:53.953Z,73.1220
2023-04-15T02:21:54.281Z,73.4707
2023-04-15T02:22:54.599Z,73.8529
2023-04-15T02:23:54.916Z,74.4437
2023-04-15T02:24:55.222Z,74.8180
2023-04-15T02:25:55.586Z,75.4182
2023-04-15T02:26:55.934Z,75.6301
2023-04-15T02:27:56.209Z,76.2623
2023-04-15T02:28:56.576Z,76.0888
2023-04-15T02:29:56.907Z,76.3896
2023-04-15T02:30:57.320Z,76.5242
2023-04-15T02:31:57.783Z,76.2630
2023-04-15T02:32:58.134Z,76.0752
2023-04-15T02:33:58.444Z,75.7904
2023-04-15T02:34:58.779Z,75.7083
2023-04-15T02:35:59.076Z,75.6890
2023-04-15T02:36:59.384Z,75.8401
2023-04-15T02:37:59.629Z,75.6264
2023-04-15T02:39:00.127Z,75.5572
2023-04-15T02:40:00.661Z,75.6028
2023-04-15T02:41:00.907Z,75.7200
2023-04-15T02:42:01.293Z,74.8103
2023-04-15T02:43:01.542Z,74.3800
2023-04-15T02:44:01.910Z,73.9174
2023-04-15T02:45:02.349Z,73.6035
2023-04-15T02:46:02.853Z,73.7622
2023-04-15T02:47:03.287Z,74.0211
2023-04-15T02:48:03.617Z,74.6560
2023-04-15T02:49:03.914Z,74.4006
2023-04-15T02:50:04.266Z,74.3711
2023-04-15T02:51:04.563Z,74.3520
2023-04-15T02:52:04.848Z,74.3912
2023-04-15T02:53:05.173Z,74.8034
2023-04-15T02:54:05.488Z,75.1718
2023-04-15T02:55:05.796Z,75.3581
2023-04-15T02:56:06.137Z,75.1884
2023-04-15T02:57:06.458Z,75.1859
2023-04-15T02:58:06.816Z,75.4135
2023-04-15T02:59:07.154Z,75.3697
2023-04-15T03:00:07.475Z,75.3130
2023-04-15T03:01:08.128Z,75.4087
2023-04-15T03:02:08.817Z,75.5470
2023-04-15T03:03:09.276Z,75.5885
2023-04-15T03:04:09.723Z,75.5501
2023-04-15T03:05:10.153Z,75.6595
2023-04-15T03:06:10.416Z,75.8076
2023-04-15T03:07:10.753Z,75.7000
2023-04-15T03:08:11.030Z,75.6929
2023-04-15T03:09:11.357Z,75.5577
2023-04-15T03:10:11.693Z,75.4945
2023-04-15T03:11:13.175Z,75.0311
2023-04-15T03:12:13.503Z,74.8404
2023-04-15T03:13:13.849Z,74.9852
2023-04-15T03:14:14.138Z,75.0021
2023-04-15T03:15:14.499Z,74.9670
2023-04-15T03:16:14.868Z,75.1038
2023-04-15T03:17:15.198Z,75.3331
2023-04-15T03:18:15.491Z,75.2663
2023-04-15T03:19:15.849Z,75.3546
2023-04-15T03:20:16.243Z,75.1856
2023-04-15T03:21:16.661Z,75.1464
2023-04-15T03:22:17.001Z,75.0906
2023-04-15T03:23:17.315Z,75.2441
2023-04-15T03:24:17.678Z,75.6120
2023-04-15T03:25:17.969Z,75.7080
2023-04-15T03:26:18.283Z,75.7921
2023-04-15T03:27:18.606Z,75.6055
2023-04-15T03:28:19.094Z,75.6152
2023-04-15T03:29:19.626Z,75.3737
2023-04-15T03:30:19.946Z,75.0998
2023-04-15T03:31:20.315Z,74.8414
2023-04-15T03:32:20.640Z,74.4394
2023-04-15T03:33:20.985Z,74.3761
2023-04-15T03:34:21.367Z,74.5595
2023-04-15T03:35:21.730Z,74.3777
2023-04-15T03:36:22.052Z,74.0073
2023-04-15T03:37:22.381Z,73.9905
2023-04-15T03:38:22.662Z,74.0149
2023-04-15T03:39:22.974Z,73.7460
2023-04-15T03:40:23.271Z,73.8039
2023-04-15T03:41:23.559Z,73.8429
2023-04-15T03:42:23.859Z,73.9240
2023-04-15T03:43:24.234Z,74.2294
2023-04-15T03:44:24.501Z,74.9098
2023-04-15T03:45:24.818Z,75.1391
2023-04-15T03:46:25.189Z,75.2934
2023-04-15T03:47:25.589Z,75.2771
2023-04-15T03:48:25.901Z,75.1908
2023-04-15T03:49:26.241Z,75.0902
2023-04-15T03:50:26.559Z,74.8475
2023-04-15T03:51:26.889Z,74.9375
2023-04-15T03:52:27.165Z,75.1048
2023-04-15T03:53:27.561Z,75.6112
2023-04-15T03:54:27.868Z,76.0885
2023-04-15T03:55:28.212Z,75.9462
2023-04-15T03:56:28.718Z,75.8799
2023-04-15T03:57:29.297Z,76.0308
2023-04-15T03:58:29.615Z,75.9875
2023-04-15T03:59:29.981Z,75.6581
2023-04-15T04:00:30.294Z,75.5369
2023-04-15T04:01:30.714Z,75.6313
2023-04-15T04:02:31.114Z,75.7166
2023-04-15T04:03:31.671Z,75.6835
2023-04-15T04:04:32.184Z,75.7960
2023-04-15T04:05:32.817Z,75.8010
2023-04-15T04:06:33.318Z,75.8028
2023-04-15T04:07:33.673Z,75.6794
2023-04-15T04:08:33.977Z,75.7277
2023-04-15T04:09:34.314Z,75.6731
2023-04-15T04:10:34.617Z,75.5930
2023-04-15T04:11:36.353Z,75.6552
2023-04-15T04:12:36.646Z,75.8776
2023-04-15T04:13:36.970Z,75.7743
2023-04-15T04:14:37.290Z,75.7615
2023-04-15T04:15:37.757Z,75.7037
2023-04-15T04:16:38.119Z,75.6069
2023-04-15T04:17:38.431Z,75.6822
2023-04-15T04:18:38.743Z,75.6659
2023-04-15T04:19:39.038Z,75.5874
2023-04-15T04:20:39.366Z,75.4620
2023-04-15T04:21:39.730Z,75.5039
2023-04-15T04:22:40.112Z,75.4397
2023-04-15T04:23:40.467Z,75.5484
2023-04-15T04:24:40.742Z,75.6048
2023-04-15T04:25:41.052Z,75.2599
2023-04-15T04:26:41.357Z,74.9434
2023-04-15T04:27:41.648Z,75.0549
2023-04-15T04:28:41.930Z,74.9025
2023-04-15T04:29:42.269Z,75.0984
2023-04-15T04:30:42.605Z,75.1393
2023-04-15T04:31:42.932Z,75.3333
2023-04-15T04:32:43.300Z,75.4774
2023-04-15T04:33:43.593Z,75.5003
2023-04-15T04:34:43.948Z,75.6299
2023-04-15T04:35:44.321Z,75.5230
2023-04-15T04:36:44.660Z,75.8427
2023-04-15T04:37:45.027Z,76.0385
2023-04-15T04:38:45.327Z,75.6234
2023-04-15T04:39:45.669Z,75.1205
2023-04-15T04:40:46.011Z,74.9395
2023-04-15T04:41:46.359Z,74.5641
2023-04-15T04:42:46.687Z,74.4754
2023-04-15T04:43:47.007Z,74.2862
2023-04-15T04:44:47.309Z,73.9351
2023-04-15T04:45:47.714Z,74.0387
2023-04-15T04:46:48.023Z,74.0240
2023-04-15T04:47:48.331Z,74.0360
2023-04-15T04:48:48.684Z,73.8959
2023-04-15T04:49:49.013Z,73.9624
2023-04-15T04:50:49.374Z,73.8742
2023-04-15T04:51:49.629Z,73.9205
2023-04-15T04:52:49.987Z,73.8888
2023-04-15T04:53:50.322Z,73.9840
2023-04-15T04:54:50.640Z,73.9345
2023-04-15T04:55:50.976Z,73.6225
2023-04-15T04:56:51.325Z,73.4001
2023-04-15T04:57:51.699Z,73.1561
2023-04-15T04:58:52.055Z,73.2417
2023-04-15T04:59:52.354Z,73.1540
2023-04-15T05:00:52.697Z,73.0361
2023-04-15T05:01:53.056Z,73.1063
2023-04-15T05:02:53.538Z,73.0221
2023-04-15T05:03:54.135Z,73.1175
2023-04-15T05:04:54.590Z,73.2275
2023-04-15T05:05:54.966Z,73.5208
2023-04-15T05:06:55.336Z,73.3982
2023-04-15T05:07:55.756Z,73.4158
2023-04-15T05:08:56.049Z,73.7866
2023-04-15T05:09:56.397Z,73.8602
2023-04-15T05:10:56.741Z,74.1267
2023-04-15T05:11:57.049Z,74.2243
2023-04-15T05:12:57.384Z,74.0232
2023-04-15T05:13:57.707Z,73.9901
2023-04-15T05:14:58.079Z,74.1157
2023-04-15T05:15:58.440Z,74.3329
2023-04-15T05:16:58.762Z,74.6181
2023-04-15T05:17:59.194Z,74.9346
2023-04-15T05:18:59.632Z,74.7677
2023-04-15T05:20:00.211Z,74.9168
2023-04-15T05:21:00.563Z,74.8838
2023-04-15T05:22:00.872Z,74.5721
2023-04-15T05:23:01.244Z,74.5521
2023-04-15T05:24:01.553Z,74.3632
2023-04-15T05:25:01.884Z,74.2138
2023-04-15T05:26:02.218Z,74.0042
2023-04-15T05:27:02.590Z,73.8167
2023-04-15T05:28:03.008Z,73.7612
2023-04-15T05:29:03.457Z,73.9076
2023-04-15T05:30:03.947Z,73.8295
2023-04-15T05:31:04.321Z,73.6435
2023-04-15T05:32:04.652Z,73.3687
2023-04-15T05:33:05.105Z,73.5342
2023-04-15T05:34:05.512Z,73.6889
2023-04-15T05:35:05.839Z,73.5584
2023-04-15T05:36:06.172Z,73.6221
2023-04-15T05:37:06.507Z,73.5043
2023-04-15T05:38:06.857Z,73.3047
2023-04-15T05:39:07.222Z,73.3779
2023-04-15T05:40:07.590Z,73.2499
2023-04-15T05:41:07.888Z,73.0999
2023-04-15T05:42:08.260Z,73.1685
2023-04-15T05:43:08.605Z,73.2943
2023-04-15T05:44:08.896Z,73.4774
2023-04-15T05:45:09.307Z,73.6507
2023-04-15T05:46:09.736Z,73.4320
2023-04-15T05:47:10.026Z,73.2614
2023-04-15T05:48:10.443Z,72.9967
2023-04-15T05:49:10.814Z,72.7739
2023-04-15T05:50:11.160Z,73.0182
2023-04-15T05:51:11.640Z,73.1744
2023-04-15T05:52:11.964Z,72.8643
2023-04-15T05:53:12.280Z,72.8612
2023-04-15T05:54:12.585Z,73.0815
2023-04-15T05:55:12.916Z,73.1466
2023-04-15T05:56:13.242Z,73.0832
2023-04-15T05:57:13.562Z,72.9471
2023-04-15T05:58:13.887Z,72.8743
2023-04-15T05:59:14.177Z,72.6883
2023-04-15T06:00:14.569Z,72.7986
2023-04-15T06:01:14.892Z,73.1013
2023-04-15T06:02:15.335Z,73.1076
2023-04-15T06:03:15.704Z,72.9268
2023-04-15T06:04:16.028Z,72.3062
2023-04-15T06:05:16.372Z,71.8770
2023-04-15T06:06:16.890Z,71.8723
2023-04-15T06:07:17.288Z,71.8644
2023-04-15T06:08:17.615Z,71.8947
2023-04-15T06:09:17.885Z,71.8831
2023-04-15T06:10:18.164Z,71.8539
2023-04-15T06:11:18.437Z,71.7802
2023-04-15T06:12:18.867Z,71.8898
2023-04-15T06:13:19.127Z,72.1376
2023-04-15T06:14:19.423Z,71.9991
2023-04-15T06:15:19.797Z,71.9937
2023-04-15T06:16:20.081Z,71.9077
2023-04-15T06:17:20.451Z,71.9349
2023-04-15T06:18:20.702Z,71.6291
2023-04-15T06:19:21.149Z,71.5193
2023-04-15T06:20:21.397Z,71.7547
2023-04-15T06:21:21.740Z,72.1311
2023-04-15T06:22:22.091Z,71.9763
2023-04-15T06:23:22.411Z,71.7437
2023-04-15T06:24:22.732Z,71.5127
2023-04-15T06:25:23.047Z,71.0431
2023-04-15T06:26:23.321Z,70.6161
2023-04-15T06:27:23.654Z,70.0528
2023-04-15T06:28:23.940Z,69.9112
2023-04-15T06:29:24.251Z,70.2902
2023-04-15T06:30:24.639Z,70.2997
2023-04-15T06:31:24.973Z,69.8123
2023-04-15T06:32:25.297Z,70.1904
2023-04-15T06:33:25.597Z,70.6430
2023-04-15T06:34:25.941Z,70.7193
2023-04-15T06:35:26.241Z,70.8062
2023-04-15T06:36:26.608Z,70.4412
2023-04-15T06:37:26.914Z,69.9647
2023-04-15T06:38:27.334Z,69.4678
2023-04-15T06:39:27.661Z,68.3889
2023-04-15T06:40:27.996Z,68.9344
2023-04-15T06:41:28.255Z,69.4431
2023-04-15T06:42:28.575Z,69.3327
2023-04-15T06:43:28.907Z,69.1826
2023-04-15T06:44:29.268Z,69.4433
2023-04-15T06:45:29.678Z,69.1153
2023-04-15T06:46:30.005Z,68.9956
2023-04-15T06:47:30.370Z,68.7010
2023-04-15T06:48:30.794Z,68.0925
2023-04-15T06:49:31.146Z,68.6409
2023-04-15T06:50:31.517Z,68.8130
2023-04-15T06:51:31.839Z,68.5500
2023-04-15T06:52:32.184Z,68.8017
2023-04-15T06:53:32.617Z,68.3506
2023-04-15T06:54:32.943Z,68.4591
2023-04-15T06:55:33.295Z,67.9500
2023-04-15T06:56:33.629Z,68.1772
2023-04-15T06:57:35.160Z,68.1902
2023-04-15T06:58:35.603Z,68.0966
2023-04-15T06:59:36.132Z,69.0435
2023-04-15T07:00:36.467Z,69.5188
2023-04-15T07:01:36.903Z,69.4506
2023-04-15T07:02:37.319Z,69.3631
2023-04-15T07:03:37.768Z,68.6213
2023-04-15T07:04:38.351Z,68.5236
2023-04-15T07:05:38.745Z,68.8745
2023-04-15T07:06:39.242Z,68.8831
2023-04-15T07:07:39.594Z,68.2542
2023-04-15T07:08:39.902Z,68.0127
2023-04-15T07:09:40.328Z,67.7174
2023-04-15T07:10:40.600Z,67.6556
2023-04-15T07:11:40.956Z,67.5020
2023-04-15T07:12:41.274Z,67.9070
2023-04-15T07:13:41.650Z,67.1450
2023-04-15T07:14:41.989Z,67.5880
2023-04-15T07:15:42.319Z,68.3725
2023-04-15T07:16:42.720Z,68.3883
2023-04-15T07:17:43.107Z,68.6386
2023-04-15T07:18:43.473Z,69.1740
2023-04-15T07:19:43.819Z,69.5685
2023-04-15T07:20:44.111Z,69.5856
2023-04-15T07:21:44.470Z,69.1343
2023-04-15T07:22:44.805Z,69.8884
2023-04-15T07:23:45.174Z,70.5157
2023-04-15T07:24:45.583Z,70.3739
2023-04-15T07:25:45.934Z,70.2381
2023-04-15T07:26:46.299Z,70.6359
2023-04-15T07:27:46.624Z,70.3525
2023-04-15T07:28:46.968Z,70.4502
2023-04-15T07:29:47.399Z,70.5825
2023-04-15T07:30:47.818Z,71.1091
2023-04-15T07:31:48.196Z,71.4488
2023-04-15T07:32:48.529Z,71.6212
2023-04-15T07:33:48.962Z,71.7022
2023-04-15T07:34:49.358Z,71.9761
2023-04-15T07:35:49.750Z,72.5141
2023-04-15T07:36:50.075Z,72.5429
2023-04-15T07:37:50.437Z,72.3227
2023-04-15T07:38:50.836Z,72.4553
2023-04-15T07:39:51.325Z,72.8016
2023-04-15T07:40:51.676Z,72.8973
2023-04-15T07:41:52.141Z,73.2244
2023-04-15T07:42:52.515Z,73.5368
2023-04-15T07:43:52.838Z,73.4741
2023-04-15T07:44:53.242Z,72.9116
2023-04-15T07:45:53.642Z,72.7625
2023-04-15T07:46:54.035Z,73.1182
2023-04-15T07:47:54.401Z,73.3327
2023-04-15T07:48:54.745Z,73.3075
2023-04-15T07:49:55.095Z,73.1078
2023-04-15T07:50:55.445Z,72.9403
2023-04-15T07:51:55.791Z,72.9385
2023-04-15T07:52:56.128Z,72.7272
2023-04-15T07:53:56.492Z,72.7475
2023-04-15T07:54:56.811Z,73.1087
2023-04-15T07:55:57.188Z,73.5941
2023-04-15T07:56:57.569Z,73.7877
2023-04-15T07:57:57.907Z,73.5722
2023-04-15T07:58:58.292Z,73.3226
2023-04-15T07:59:58.593Z,73.1819
2023-04-15T08:00:58.963Z,72.8056
2023-04-15T08:01:59.335Z,72.6740
2023-04-15T08:02:59.819Z,72.3546
2023-04-15T08:04:00.763Z,72.4193
2023-04-15T08:05:01.265Z,72.6942
2023-04-15T08:06:01.590Z,72.4932
2023-04-15T08:07:01.943Z,72.3043
2023-04-15T08:08:02.293Z,72.3451
2023-04-15T08:09:02.885Z,72.0535
2023-04-15T08:10:03.317Z,72.7867
2023-04-15T08:11:03.662Z,73.2941
2023-04-15T08:12:04.022Z,73.2304
2023-04-15T08:13:04.352Z,73.0256
2023-04-15T08:14:04.696Z,72.7123
2023-04-15T08:15:04.996Z,72.7597
2023-04-15T08:16:05.415Z,72.6460
2023-04-15T08:17:05.792Z,72.8456
2023-04-15T08:18:06.107Z,72.2481
2023-04-15T08:19:06.471Z,71.7303
2023-04-15T08:20:06.839Z,71.8123
2023-04-15T08:21:07.170Z,71.6078
2023-04-15T08:22:15.636Z,71.3455
2023-04-15T08:23:08.562Z,71.8366
2023-04-15T08:24:08.905Z,71.7122
2023-04-15T08:25:09.237Z,71.4402
2023-04-15T08:26:09.563Z,71.0617
2023-04-15T08:27:09.907Z,71.1323
2023-04-15T08:28:10.225Z,71.1220
2023-04-15T08:29:10.558Z,70.5131
2023-04-15T08:30:10.912Z,70.1017
2023-04-15T08:31:11.256Z,69.4932
2023-04-15T08:32:11.695Z,69.4318
2023-04-15T08:33:12.026Z,69.2969
2023-04-15T08:34:12.375Z,69.0138
2023-04-15T08:35:12.698Z,69.0663
2023-04-15T08:36:13.044Z,69.7104
2023-04-15T08:37:13.469Z,69.7837
2023-04-15T08:38:13.833Z,69.4274
2023-04-15T08:39:14.210Z,69.0156
2023-04-15T08:40:14.548Z,69.1311
2023-04-15T08:41:14.854Z,68.8298
2023-04-15T08:42:15.217Z,68.6947
2023-04-15T08:43:15.570Z,68.3463
2023-04-15T08:44:15.903Z,68.4067
2023-04-15T08:45:16.334Z,68.3968
2023-04-15T08:46:16.681Z,68.1847
2023-04-15T08:47:17.047Z,69.1301
2023-04-15T08:48:17.418Z,69.0527
2023-04-15T08:49:17.765Z,68.9503
2023-04-15T08:50:18.088Z,68.5225
2023-04-15T08:51:18.395Z,68.1268
2023-04-15T08:52:18.757Z,67.7861
2023-04-15T08:53:19.079Z,67.6904
2023-04-15T08:54:19.437Z,67.5151
2023-04-15T08:55:19.730Z,67.3393
2023-04-15T08:56:20.042Z,67.0041
2023-04-15T08:57:20.454Z,66.7760
2023-04-15T08:58:20.799Z,67.2464
2023-04-15T08:59:21.163Z,66.7662
2023-04-15T09:00:21.437Z,66.1223
2023-04-15T09:01:21.873Z,65.9885
2023-04-15T09:02:22.424Z,66.2127
2023-04-15T09:03:23.064Z,66.7616
2023-04-15T09:04:23.420Z,67.6986
2023-04-15T09:05:23.764Z,68.9754
2023-04-15T09:06:24.084Z,69.8806
2023-04-15T09:07:24.472Z,71.7045
2023-04-15T09:08:24.871Z,72.4289
2023-04-15T09:09:25.334Z,72.7837
2023-04-15T09:10:25.677Z,73.6262
2023-04-15T09:11:26.052Z,73.6618
2023-04-15T09:12:26.316Z,73.5216
2023-04-15T09:13:26.662Z,73.9519
2023-04-15T09:14:26.987Z,75.6307
2023-04-15T09:15:27.320Z,75.4149
2023-04-15T09:16:27.682Z,75.7300
2023-04-15T09:17:28.128Z,75.9980
2023-04-15T09:18:28.400Z,75.3910
2023-04-15T09:19:28.732Z,75.7817
2023-04-15T09:20:29.077Z,75.7598
2023-04-15T09:21:29.373Z,75.5223
2023-04-15T09:22:29.708Z,76.4726
2023-04-15T09:23:30.155Z,76.0079
2023-04-15T09:24:30.510Z,75.6940
2023-04-15T09:25:32.776Z,75.4060
2023-04-15T09:26:31.280Z,74.2127
2023-04-15T09:27:31.607Z,74.9050
2023-04-15T09:28:31.942Z,74.6753
2023-04-15T09:29:32.331Z,73.6850
2023-04-15T09:30:32.692Z,75.1950
2023-04-15T09:31:33.026Z,72.5601
2023-04-15T09:32:33.352Z,72.4940
2023-04-15T09:33:34.179Z,74.6347
2023-04-15T09:34:34.551Z,74.5700
2023-04-15T09:35:34.879Z,71.2005
2023-04-15T09:36:35.169Z,71.8186
2023-04-15T09:37:35.546Z,70.6793
2023-04-15T09:38:35.951Z,71.3268
2023-04-15T09:39:36.326Z,71.9012
2023-04-15T09:40:36.691Z,72.0237
2023-04-15T09:41:37.184Z,72.0952
2023-04-15T09:42:37.610Z,72.1315
2023-04-15T09:43:38.083Z,70.7716
2023-04-15T09:44:38.400Z,69.2266
2023-04-15T09:45:38.741Z,69.9690
2023-04-15T09:46:39.071Z,72.6990
2023-04-15T09:47:39.386Z,71.6002
2023-04-15T09:48:39.701Z,70.3699
2023-04-15T09:49:40.045Z,69.2630
2023-04-15T09:50:40.366Z,68.4748
2023-04-15T09:51:41.294Z,66.8709
2023-04-15T09:52:41.724Z,66.7979
2023-04-15T09:53:42.160Z,66.2468
2023-04-15T09:54:42.500Z,66.9843
2023-04-15T09:55:42.887Z,65.3237
2023-04-15T09:56:43.254Z,64.9246
2023-04-15T09:57:44.572Z,64.9113
2023-04-15T09:58:44.994Z,64.4006
2023-04-15T09:59:45.300Z,64.9039
2023-04-15T10:00:45.616Z,64.4684
2023-04-15T10:01:46.162Z,64.5625
2023-04-15T10:02:46.607Z,67.0773
2023-04-15T10:03:47.089Z,69.9625
2023-04-15T10:04:47.430Z,68.1038
2023-04-15T10:05:47.833Z,66.8106
2023-04-15T10:06:48.132Z,66.2553
2023-04-15T10:07:48.496Z,65.6599
2023-04-15T10:08:48.967Z,67.0328
2023-04-15T10:09:49.379Z,67.6331
2023-04-15T10:10:49.706Z,67.5365
2023-04-15T10:11:50.117Z,67.5392
2023-04-15T10:12:50.428Z,69.5107
2023-04-15T10:13:50.775Z,68.8736
2023-04-15T10:14:51.059Z,68.5737
2023-04-15T10:15:51.437Z,69.0781
2023-04-15T10:16:51.847Z,68.4641
2023-04-15T10:17:52.457Z,68.9510
2023-04-15T10:18:52.831Z,69.2892
2023-04-15T10:19:53.200Z,70.7384
2023-04-15T10:20:53.517Z,70.1580
2023-04-15T10:21:53.868Z,69.1196
2023-04-15T10:22:54.229Z,70.2534
2023-04-15T10:23:54.587Z,71.4423
2023-04-15T10:24:54.912Z,71.6031
2023-04-15T10:25:55.282Z,71.6728
2023-04-15T10:26:55.688Z,71.4402
2023-04-15T10:27:56.060Z,70.3020
2023-04-15T10:28:56.946Z,71.0510
2023-04-15T10:29:58.255Z,70.6883
2023-04-15T10:30:59.147Z,68.9613
2023-04-15T10:31:59.673Z,69.6982
2023-04-15T10:33:00.280Z,68.8953
2023-04-15T10:34:01.014Z,69.5471
2023-04-15T10:35:01.512Z,71.1504
2023-04-15T10:36:02.076Z,70.3986
2023-04-15T10:37:02.360Z,70.8940
2023-04-15T10:38:02.712Z,71.9063
2023-04-15T10:39:03.066Z,71.7575
2023-04-15T10:40:05.535Z,70.6736
2023-04-15T10:41:05.931Z,69.3018
2023-04-15T10:42:06.394Z,69.0504
2023-04-15T10:43:06.735Z,69.7219
2023-04-15T10:44:07.093Z,69.5159
2023-04-15T10:45:07.413Z,70.0172
2023-04-15T10:46:07.759Z,69.1588
2023-04-15T10:47:08.059Z,69.2836
2023-04-15T10:48:08.443Z,69.9541
2023-04-15T10:49:08.789Z,67.7203
2023-04-15T10:50:09.145Z,69.1114
2023-04-15T10:51:09.462Z,70.9891
2023-04-15T10:52:09.812Z,73.6812
2023-04-15T10:53:10.105Z,73.8371
2023-04-15T10:54:10.440Z,73.2663
2023-04-15T10:55:10.742Z,74.2550
2023-04-15T10:56:11.085Z,73.9687
2023-04-15T10:57:11.383Z,74.4176
2023-04-15T10:58:11.735Z,73.0628
2023-04-15T10:59:12.101Z,72.5922
2023-04-15T11:00:12.490Z,72.9120
2023-04-15T11:01:12.793Z,72.1089
2023-04-15T11:02:13.262Z,73.5999
2023-04-15T11:03:13.710Z,74.5651
2023-04-15T11:04:14.260Z,74.6980
2023-04-15T11:05:14.566Z,74.5025
2023-04-15T11:06:14.921Z,74.4608
2023-04-15T11:07:15.250Z,73.4228
2023-04-15T11:08:15.569Z,72.8877
2023-04-15T11:09:15.967Z,72.4998
2023-04-15T11:10:16.292Z,72.2263
2023-04-15T11:11:16.634Z,73.1486
2023-04-15T11:12:17.002Z,71.7640
2023-04-15T11:13:17.433Z,71.4974
2023-04-15T11:14:17.895Z,71.4153
2023-04-15T11:15:18.252Z,71.5419
2023-04-15T11:16:18.657Z,71.3262
2023-04-15T11:17:18.931Z,70.4721
2023-04-15T11:18:19.277Z,72.7479
2023-04-15T11:19:19.639Z,71.3388
2023-04-15T11:20:19.958Z,71.2633
2023-04-15T11:21:20.260Z,71.8646
2023-04-15T11:22:20.617Z,72.9803
2023-04-15T11:23:20.889Z,73.8939
2023-04-15T11:24:21.269Z,74.2077
2023-04-15T11:25:22.249Z,74.5594
2023-04-15T11:26:22.591Z,74.8156
2023-04-15T11:27:22.961Z,75.0727
2023-04-15T11:28:23.352Z,74.8696
2023-04-15T11:29:23.757Z,75.3037
2023-04-15T11:30:24.194Z,75.8385
2023-04-15T11:31:24.620Z,75.9845
2023-04-15T11:32:25.298Z,77.0996
2023-04-15T11:33:25.991Z,76.8119
2023-04-15T11:34:26.411Z,77.1838
2023-04-15T11:35:26.785Z,75.3364
2023-04-15T11:36:27.200Z,75.3820
2023-04-15T11:37:27.532Z,75.2252
2023-04-15T11:38:27.874Z,74.2952
2023-04-15T11:39:28.303Z,74.4411
2023-04-15T11:40:28.654Z,75.0664
2023-04-15T11:41:29.030Z,75.3915
2023-04-15T11:42:39.280Z,75.4180
2023-04-15T11:43:30.658Z,75.6836
2023-04-15T11:44:31.103Z,75.6925
2023-04-15T11:45:31.515Z,75.7854
2023-04-15T11:46:32.240Z,76.1218
2023-04-15T11:47:32.945Z,75.3058
2023-04-15T11:48:33.405Z,75.5303
2023-04-15T11:49:33.771Z,75.5721
2023-04-15T11:50:34.197Z,75.8156
2023-04-15T11:51:34.571Z,76.1340
2023-04-15T11:52:34.985Z,76.1905
2023-04-15T11:53:35.373Z,76.5828
2023-04-15T11:54:35.777Z,78.1047
2023-04-15T11:55:36.208Z,76.8778
2023-04-15T11:56:36.584Z,76.8631
2023-04-15T11:57:36.983Z,76.3520
2023-04-15T11:58:37.371Z,76.6062
2023-04-15T11:59:45.446Z,74.0096
2023-04-15T12:00:38.829Z,73.4197
2023-04-15T12:01:39.219Z,73.5815
2023-04-15T12:02:39.669Z,74.2457
2023-04-15T12:03:40.277Z,73.8446
2023-04-15T12:04:41.208Z,73.5170
2023-04-15T12:05:41.891Z,72.6817
2023-04-15T12:06:42.310Z,71.9992
2023-04-15T12:07:42.680Z,71.9633
2023-04-15T12:08:43.048Z,71.5661
2023-04-15T12:09:43.417Z,70.5835